sensor_id;sensor_type;location;lat;lon;timestamp;P1;durP1;ratioP1;P2;durP2;ratioP2
34926;SDS011;21132;48.308;14.274;2023-04-29T00:01:25;21.05;;;14.63;;
34926;SDS011;21132;48.308;14.274;2023-04-29T00:03:51;19.13;;;13.05;;
34926;SDS011;21132;48.308;14.274;2023-04-29T00:06:17;20.40;;;12.38;;
34926;SDS011;21132;48.308;14.274;2023-04-29T00:08:43;18.95;;;13.32;;
34926;SDS011;21132;48.308;14.274;2023-04-29T00:11:09;22.15;;;14.25;;
34926;SDS011;21132;48.308;14.274;2023-04-29T00:13:38;18.70;;;13.50;;
34926;SDS011;21132;48.308;14.274;2023-04-29T00:16:05;24.70;;;15.40;;
34926;SDS011;21132;48.308;14.274;2023-04-29T00:18:31;21.85;;;15.70;;
34926;SDS011;21132;48.308;14.274;2023-04-29T00:20:57;22.88;;;15.88;;
34926;SDS011;21132;48.308;14.274;2023-04-29T00:23:23;21.80;;;15.27;;
34926;SDS011;21132;48.308;14.274;2023-04-29T00:25:49;24.10;;;15.50;;
34926;SDS011;21132;48.308;14.274;2023-04-29T00:28:17;27.10;;;16.63;;
34926;SDS011;21132;48.308;14.274;2023-04-29T00:30:43;28.00;;;18.45;;
34926;SDS011;21132;48.308;14.274;2023-04-29T00:33:09;29.75;;;17.52;;
34926;SDS011;21132;48.308;14.274;2023-04-29T00:35:35;26.88;;;17.45;;
34926;SDS011;21132;48.308;14.274;2023-04-29T00:38:01;27.55;;;18.73;;
34926;SDS011;21132;48.308;14.274;2023-04-29T00:40:29;25.92;;;15.55;;
34926;SDS011;21132;48.308;14.274;2023-04-29T00:42:55;24.27;;;15.02;;
34926;SDS011;21132;48.308;14.274;2023-04-29T00:45:21;27.70;;;17.15;;
34926;SDS011;21132;48.308;14.274;2023-04-29T00:47:47;30.10;;;19.20;;
34926;SDS011;21132;48.308;14.274;2023-04-29T00:50:13;33.67;;;20.55;;
34926;SDS011;21132;48.308;14.274;2023-04-29T00:52:39;37.90;;;21.90;;
34926;SDS011;21132;48.308;14.274;2023-04-29T00:55:07;28.92;;;18.42;;
34926;SDS011;21132;48.308;14.274;2023-04-29T00:57:34;20.90;;;15.10;;
34926;SDS011;21132;48.308;14.274;2023-04-29T01:00:00;19.13;;;14.77;;
34926;SDS011;21132;48.308;14.274;2023-04-29T01:02:26;22.58;;;16.05;;
34926;SDS011;21132;48.308;14.274;2023-04-29T01:04:53;23.02;;;15.73;;
34926;SDS011;21132;48.308;14.274;2023-04-29T01:10:19;21.90;;;14.98;;
34926;SDS011;21132;48.308;14.274;2023-04-29T01:15:27;18.80;;;14.30;;
34926;SDS011;21132;48.308;14.274;2023-04-29T01:21:04;19.83;;;14.15;;
34926;SDS011;21132;48.308;14.274;2023-04-29T01:23:30;19.20;;;14.82;;
34926;SDS011;21132;48.308;14.274;2023-04-29T01:25:57;19.42;;;14.25;;
34926;SDS011;21132;48.308;14.274;2023-04-29T01:31:23;28.30;;;14.90;;
34926;SDS011;21132;48.308;14.274;2023-04-29T01:44:57;24.95;;;16.58;;
34926;SDS011;21132;48.308;14.274;2023-04-29T01:47:25;46.85;;;16.20;;
34926;SDS011;21132;48.308;14.274;2023-04-29T01:49:53;38.30;;;15.30;;
34926;SDS011;21132;48.308;14.274;2023-04-29T01:52:19;30.25;;;14.32;;
34926;SDS011;21132;48.308;14.274;2023-04-29T01:54:45;32.58;;;14.65;;
34926;SDS011;21132;48.308;14.274;2023-04-29T01:57:11;21.38;;;13.85;;
34926;SDS011;21132;48.308;14.274;2023-04-29T01:59:37;29.48;;;15.40;;
34926;SDS011;21132;48.308;14.274;2023-04-29T02:02:02;25.33;;;15.45;;
34926;SDS011;21132;48.308;14.274;2023-04-29T02:04:28;22.35;;;14.90;;
34926;SDS011;21132;48.308;14.274;2023-04-29T02:06:57;18.60;;;14.05;;
34926;SDS011;21132;48.308;14.274;2023-04-29T02:09:23;32.10;;;15.48;;
34926;SDS011;21132;48.308;14.274;2023-04-29T02:11:49;28.65;;;17.40;;
34926;SDS011;21132;48.308;14.274;2023-04-29T02:14:15;29.95;;;16.60;;
34926;SDS011;21132;48.308;14.274;2023-04-29T02:16:43;29.05;;;15.38;;
34926;SDS011;21132;48.308;14.274;2023-04-29T02:19:09;27.80;;;16.73;;
34926;SDS011;21132;48.308;14.274;2023-04-29T02:21:35;25.77;;;17.10;;
34926;SDS011;21132;48.308;14.274;2023-04-29T02:24:04;37.95;;;16.52;;
34926;SDS011;21132;48.308;14.274;2023-04-29T02:26:30;28.33;;;14.05;;
34926;SDS011;21132;48.308;14.274;2023-04-29T02:28:57;22.42;;;14.02;;
34926;SDS011;21132;48.308;14.274;2023-04-29T02:31:22;30.88;;;15.30;;
34926;SDS011;21132;48.308;14.274;2023-04-29T02:33:48;30.65;;;13.00;;
34926;SDS011;21132;48.308;14.274;2023-04-29T02:36:14;54.72;;;18.52;;
34926;SDS011;21132;48.308;14.274;2023-04-29T02:38:40;40.28;;;14.25;;
34926;SDS011;21132;48.308;14.274;2023-04-29T02:41:06;41.80;;;13.23;;
34926;SDS011;21132;48.308;14.274;2023-04-29T02:43:32;42.05;;;14.93;;
34926;SDS011;21132;48.308;14.274;2023-04-29T02:45:58;19.95;;;14.32;;
34926;SDS011;21132;48.308;14.274;2023-04-29T02:48:24;40.38;;;15.88;;
34926;SDS011;21132;48.308;14.274;2023-04-29T02:50:50;55.38;;;15.85;;
34926;SDS011;21132;48.308;14.274;2023-04-29T02:53:16;30.35;;;13.02;;
34926;SDS011;21132;48.308;14.274;2023-04-29T02:55:42;55.10;;;16.67;;
34926;SDS011;21132;48.308;14.274;2023-04-29T02:58:08;100.93;;;16.02;;
34926;SDS011;21132;48.308;14.274;2023-04-29T03:00:34;63.92;;;16.05;;
34926;SDS011;21132;48.308;14.274;2023-04-29T03:03:00;75.28;;;16.70;;
34926;SDS011;21132;48.308;14.274;2023-04-29T03:05:26;71.10;;;13.77;;
34926;SDS011;21132;48.308;14.274;2023-04-29T03:07:52;29.58;;;14.75;;
34926;SDS011;21132;48.308;14.274;2023-04-29T03:10:18;51.35;;;15.55;;
34926;SDS011;21132;48.308;14.274;2023-04-29T03:12:43;20.73;;;12.45;;
34926;SDS011;21132;48.308;14.274;2023-04-29T03:15:09;54.08;;;15.10;;
34926;SDS011;21132;48.308;14.274;2023-04-29T03:17:36;56.58;;;12.10;;
34926;SDS011;21132;48.308;14.274;2023-04-29T03:20:02;46.38;;;15.45;;
34926;SDS011;21132;48.308;14.274;2023-04-29T03:22:28;64.65;;;15.77;;
34926;SDS011;21132;48.308;14.274;2023-04-29T03:24:54;63.28;;;15.32;;
34926;SDS011;21132;48.308;14.274;2023-04-29T03:27:21;34.60;;;14.13;;
34926;SDS011;21132;48.308;14.274;2023-04-29T03:29:47;77.30;;;16.45;;
34926;SDS011;21132;48.308;14.274;2023-04-29T03:32:13;46.65;;;16.08;;
34926;SDS011;21132;48.308;14.274;2023-04-29T03:34:39;67.22;;;14.02;;
34926;SDS011;21132;48.308;14.274;2023-04-29T03:37:04;32.75;;;13.77;;
34926;SDS011;21132;48.308;14.274;2023-04-29T03:39:30;53.90;;;15.27;;
34926;SDS011;21132;48.308;14.274;2023-04-29T03:41:59;57.78;;;15.77;;
34926;SDS011;21132;48.308;14.274;2023-04-29T03:44:25;49.83;;;16.30;;
34926;SDS011;21132;48.308;14.274;2023-04-29T03:46:53;50.83;;;17.10;;
34926;SDS011;21132;48.308;14.274;2023-04-29T03:49:19;50.30;;;16.33;;
34926;SDS011;21132;48.308;14.274;2023-04-29T03:51:44;50.47;;;15.90;;
34926;SDS011;21132;48.308;14.274;2023-04-29T03:54:11;27.33;;;16.10;;
34926;SDS011;21132;48.308;14.274;2023-04-29T03:56:37;42.08;;;18.67;;
34926;SDS011;21132;48.308;14.274;2023-04-29T03:59:03;84.60;;;20.08;;
34926;SDS011;21132;48.308;14.274;2023-04-29T04:01:29;30.63;;;17.60;;
34926;SDS011;21132;48.308;14.274;2023-04-29T04:03:55;30.95;;;16.75;;
34926;SDS011;21132;48.308;14.274;2023-04-29T04:06:21;31.60;;;14.93;;
34926;SDS011;21132;48.308;14.274;2023-04-29T04:08:46;29.27;;;15.98;;
34926;SDS011;21132;48.308;14.274;2023-04-29T04:11:12;33.72;;;15.10;;
34926;SDS011;21132;48.308;14.274;2023-04-29T04:13:41;33.95;;;17.75;;
34926;SDS011;21132;48.308;14.274;2023-04-29T04:16:10;45.50;;;19.92;;
34926;SDS011;21132;48.308;14.274;2023-04-29T04:18:36;47.45;;;22.55;;
34926;SDS011;21132;48.308;14.274;2023-04-29T04:21:06;67.50;;;22.05;;
34926;SDS011;21132;48.308;14.274;2023-04-29T04:23:36;50.25;;;20.25;;
34926;SDS011;21132;48.308;14.274;2023-04-29T04:26:04;37.53;;;20.85;;
34926;SDS011;21132;48.308;14.274;2023-04-29T04:28:30;47.20;;;23.13;;
34926;SDS011;21132;48.308;14.274;2023-04-29T04:30:56;46.40;;;25.10;;
34926;SDS011;21132;48.308;14.274;2023-04-29T04:33:22;57.20;;;26.77;;
34926;SDS011;21132;48.308;14.274;2023-04-29T04:35:49;54.05;;;24.45;;
34926;SDS011;21132;48.308;14.274;2023-04-29T04:38:15;64.20;;;29.15;;
34926;SDS011;21132;48.308;14.274;2023-04-29T04:40:41;69.70;;;34.03;;
34926;SDS011;21132;48.308;14.274;2023-04-29T04:43:07;82.72;;;33.97;;
34926;SDS011;21132;48.308;14.274;2023-04-29T04:45:33;89.80;;;35.40;;
34926;SDS011;21132;48.308;14.274;2023-04-29T04:47:59;84.88;;;34.75;;
34926;SDS011;21132;48.308;14.274;2023-04-29T04:50:28;80.88;;;33.35;;
34926;SDS011;21132;48.308;14.274;2023-04-29T04:52:55;75.95;;;33.28;;
34926;SDS011;21132;48.308;14.274;2023-04-29T04:55:21;93.20;;;33.85;;
34926;SDS011;21132;48.308;14.274;2023-04-29T04:57:47;78.22;;;33.53;;
34926;SDS011;21132;48.308;14.274;2023-04-29T05:00:13;80.07;;;32.75;;
34926;SDS011;21132;48.308;14.274;2023-04-29T05:02:39;80.93;;;30.67;;
34926;SDS011;21132;48.308;14.274;2023-04-29T05:05:05;61.10;;;29.73;;
34926;SDS011;21132;48.308;14.274;2023-04-29T05:07:31;61.05;;;30.23;;
34926;SDS011;21132;48.308;14.274;2023-04-29T05:10:00;62.30;;;30.52;;
34926;SDS011;21132;48.308;14.274;2023-04-29T05:12:29;61.13;;;30.95;;
34926;SDS011;21132;48.308;14.274;2023-04-29T05:14:55;63.25;;;30.45;;
34926;SDS011;21132;48.308;14.274;2023-04-29T05:17:22;63.60;;;30.30;;
34926;SDS011;21132;48.308;14.274;2023-04-29T05:19:47;63.63;;;30.13;;
34926;SDS011;21132;48.308;14.274;2023-04-29T05:22:13;68.18;;;30.88;;
34926;SDS011;21132;48.308;14.274;2023-04-29T05:24:39;62.97;;;30.02;;
34926;SDS011;21132;48.308;14.274;2023-04-29T05:27:05;64.38;;;30.83;;
34926;SDS011;21132;48.308;14.274;2023-04-29T05:29:31;72.07;;;33.03;;
34926;SDS011;21132;48.308;14.274;2023-04-29T05:31:57;59.13;;;29.60;;
34926;SDS011;21132;48.308;14.274;2023-04-29T05:34:23;67.45;;;32.17;;
34926;SDS011;21132;48.308;14.274;2023-04-29T05:36:49;71.05;;;31.63;;
34926;SDS011;21132;48.308;14.274;2023-04-29T05:39:14;67.10;;;31.48;;
34926;SDS011;21132;48.308;14.274;2023-04-29T05:41:41;72.93;;;31.58;;
34926;SDS011;21132;48.308;14.274;2023-04-29T05:44:07;68.05;;;32.28;;
34926;SDS011;21132;48.308;14.274;2023-04-29T05:46:34;71.07;;;34.05;;
34926;SDS011;21132;48.308;14.274;2023-04-29T05:48:59;68.88;;;30.30;;
34926;SDS011;21132;48.308;14.274;2023-04-29T05:51:25;78.10;;;34.47;;
34926;SDS011;21132;48.308;14.274;2023-04-29T05:53:52;75.45;;;33.10;;
34926;SDS011;21132;48.308;14.274;2023-04-29T05:56:19;99.72;;;38.55;;
34926;SDS011;21132;48.308;14.274;2023-04-29T05:58:46;91.63;;;36.33;;
34926;SDS011;21132;48.308;14.274;2023-04-29T06:01:12;83.50;;;33.53;;
34926;SDS011;21132;48.308;14.274;2023-04-29T06:03:38;95.50;;;35.22;;
34926;SDS011;21132;48.308;14.274;2023-04-29T06:06:04;105.05;;;39.22;;
34926;SDS011;21132;48.308;14.274;2023-04-29T06:08:29;66.43;;;31.83;;
34926;SDS011;21132;48.308;14.274;2023-04-29T06:10:55;57.45;;;29.58;;
34926;SDS011;21132;48.308;14.274;2023-04-29T06:13:21;55.30;;;27.58;;
34926;SDS011;21132;48.308;14.274;2023-04-29T06:15:47;58.50;;;27.58;;
34926;SDS011;21132;48.308;14.274;2023-04-29T06:18:13;62.38;;;30.20;;
34926;SDS011;21132;48.308;14.274;2023-04-29T06:20:39;52.47;;;27.75;;
34926;SDS011;21132;48.308;14.274;2023-04-29T06:23:05;56.10;;;28.15;;
34926;SDS011;21132;48.308;14.274;2023-04-29T06:25:31;56.15;;;26.95;;
34926;SDS011;21132;48.308;14.274;2023-04-29T06:27:57;59.78;;;30.17;;
34926;SDS011;21132;48.308;14.274;2023-04-29T06:30:22;67.20;;;29.65;;
34926;SDS011;21132;48.308;14.274;2023-04-29T06:32:48;54.72;;;26.60;;
34926;SDS011;21132;48.308;14.274;2023-04-29T06:35:14;54.72;;;26.95;;
34926;SDS011;21132;48.308;14.274;2023-04-29T06:37:40;49.58;;;26.08;;
34926;SDS011;21132;48.308;14.274;2023-04-29T06:40:06;52.63;;;26.58;;
34926;SDS011;21132;48.308;14.274;2023-04-29T06:42:32;51.53;;;24.88;;
34926;SDS011;21132;48.308;14.274;2023-04-29T06:44:58;61.80;;;28.27;;
34926;SDS011;21132;48.308;14.274;2023-04-29T06:47:24;56.65;;;26.42;;
34926;SDS011;21132;48.308;14.274;2023-04-29T06:49:50;52.03;;;25.75;;
34926;SDS011;21132;48.308;14.274;2023-04-29T06:52:17;53.72;;;27.90;;
34926;SDS011;21132;48.308;14.274;2023-04-29T06:54:43;43.83;;;23.13;;
34926;SDS011;21132;48.308;14.274;2023-04-29T06:57:09;43.85;;;23.52;;
34926;SDS011;21132;48.308;14.274;2023-04-29T06:59:35;43.50;;;23.02;;
34926;SDS011;21132;48.308;14.274;2023-04-29T07:02:01;43.45;;;22.65;;
34926;SDS011;21132;48.308;14.274;2023-04-29T07:04:26;56.05;;;28.10;;
34926;SDS011;21132;48.308;14.274;2023-04-29T07:06:52;51.83;;;26.45;;
34926;SDS011;21132;48.308;14.274;2023-04-29T07:09:19;45.13;;;24.88;;
34926;SDS011;21132;48.308;14.274;2023-04-29T07:11:45;45.42;;;23.63;;
34926;SDS011;21132;48.308;14.274;2023-04-29T07:14:10;49.38;;;25.15;;
34926;SDS011;21132;48.308;14.274;2023-04-29T07:16:37;47.67;;;25.50;;
34926;SDS011;21132;48.308;14.274;2023-04-29T07:19:02;44.75;;;23.52;;
34926;SDS011;21132;48.308;14.274;2023-04-29T07:21:28;44.30;;;23.70;;
34926;SDS011;21132;48.308;14.274;2023-04-29T07:23:55;43.15;;;23.55;;
34926;SDS011;21132;48.308;14.274;2023-04-29T07:26:23;48.38;;;24.65;;
34926;SDS011;21132;48.308;14.274;2023-04-29T07:28:52;43.83;;;24.25;;
34926;SDS011;21132;48.308;14.274;2023-04-29T07:31:18;43.65;;;24.45;;
34926;SDS011;21132;48.308;14.274;2023-04-29T07:33:44;43.33;;;23.88;;
34926;SDS011;21132;48.308;14.274;2023-04-29T07:36:11;39.17;;;22.73;;
34926;SDS011;21132;48.308;14.274;2023-04-29T07:38:37;39.28;;;22.30;;
34926;SDS011;21132;48.308;14.274;2023-04-29T07:41:03;36.17;;;21.92;;
34926;SDS011;21132;48.308;14.274;2023-04-29T07:43:30;32.22;;;19.10;;
34926;SDS011;21132;48.308;14.274;2023-04-29T07:45:56;35.25;;;20.50;;
34926;SDS011;21132;48.308;14.274;2023-04-29T07:48:22;36.90;;;20.02;;
34926;SDS011;21132;48.308;14.274;2023-04-29T07:50:47;30.63;;;18.77;;
34926;SDS011;21132;48.308;14.274;2023-04-29T07:53:13;26.75;;;16.73;;
34926;SDS011;21132;48.308;14.274;2023-04-29T07:55:42;25.85;;;16.77;;
34926;SDS011;21132;48.308;14.274;2023-04-29T07:58:08;26.58;;;17.63;;
34926;SDS011;21132;48.308;14.274;2023-04-29T08:00:33;28.85;;;18.85;;
34926;SDS011;21132;48.308;14.274;2023-04-29T08:02:59;20.15;;;13.00;;
34926;SDS011;21132;48.308;14.274;2023-04-29T08:05:26;24.52;;;14.27;;
34926;SDS011;21132;48.308;14.274;2023-04-29T08:07:54;18.27;;;12.48;;
34926;SDS011;21132;48.308;14.274;2023-04-29T08:10:20;18.23;;;12.82;;
34926;SDS011;21132;48.308;14.274;2023-04-29T08:12:47;20.95;;;12.70;;
34926;SDS011;21132;48.308;14.274;2023-04-29T08:15:13;16.67;;;10.20;;
34926;SDS011;21132;48.308;14.274;2023-04-29T08:17:47;14.38;;;8.70;;
34926;SDS011;21132;48.308;14.274;2023-04-29T08:20:12;13.93;;;8.48;;
34926;SDS011;21132;48.308;14.274;2023-04-29T08:22:39;12.88;;;8.90;;
34926;SDS011;21132;48.308;14.274;2023-04-29T08:25:05;12.88;;;8.00;;
34926;SDS011;21132;48.308;14.274;2023-04-29T08:27:31;10.90;;;7.25;;
34926;SDS011;21132;48.308;14.274;2023-04-29T08:29:58;12.55;;;7.50;;
34926;SDS011;21132;48.308;14.274;2023-04-29T08:32:24;11.68;;;6.18;;
34926;SDS011;21132;48.308;14.274;2023-04-29T08:34:50;15.00;;;5.97;;
34926;SDS011;21132;48.308;14.274;2023-04-29T08:37:15;6.05;;;4.75;;
34926;SDS011;21132;48.308;14.274;2023-04-29T08:39:41;6.95;;;4.70;;
34926;SDS011;21132;48.308;14.274;2023-04-29T08:42:13;6.28;;;3.72;;
34926;SDS011;21132;48.308;14.274;2023-04-29T08:44:39;8.27;;;4.57;;
34926;SDS011;21132;48.308;14.274;2023-04-29T08:47:05;5.07;;;3.67;;
34926;SDS011;21132;48.308;14.274;2023-04-29T08:49:31;7.82;;;3.65;;
34926;SDS011;21132;48.308;14.274;2023-04-29T08:51:58;7.78;;;5.13;;
34926;SDS011;21132;48.308;14.274;2023-04-29T08:54:24;4.53;;;3.25;;
34926;SDS011;21132;48.308;14.274;2023-04-29T08:56:52;5.18;;;3.08;;
34926;SDS011;21132;48.308;14.274;2023-04-29T08:59:19;4.80;;;3.30;;
34926;SDS011;21132;48.308;14.274;2023-04-29T09:01:47;3.80;;;2.78;;
34926;SDS011;21132;48.308;14.274;2023-04-29T09:07:12;2.63;;;2.40;;
34926;SDS011;21132;48.308;14.274;2023-04-29T09:09:38;7.88;;;3.75;;
34926;SDS011;21132;48.308;14.274;2023-04-29T09:12:04;4.53;;;3.08;;
34926;SDS011;21132;48.308;14.274;2023-04-29T09:14:30;5.30;;;3.28;;
34926;SDS011;21132;48.308;14.274;2023-04-29T09:17:00;3.70;;;2.85;;
34926;SDS011;21132;48.308;14.274;2023-04-29T09:19:29;5.53;;;3.00;;
34926;SDS011;21132;48.308;14.274;2023-04-29T09:22:00;4.13;;;3.00;;
34926;SDS011;21132;48.308;14.274;2023-04-29T09:24:29;3.25;;;2.60;;
34926;SDS011;21132;48.308;14.274;2023-04-29T09:26:56;5.75;;;2.75;;
34926;SDS011;21132;48.308;14.274;2023-04-29T09:29:22;4.95;;;3.20;;
34926;SDS011;21132;48.308;14.274;2023-04-29T09:31:49;6.63;;;3.65;;
34926;SDS011;21132;48.308;14.274;2023-04-29T09:34:17;12.15;;;4.20;;
34926;SDS011;21132;48.308;14.274;2023-04-29T09:36:59;7.97;;;3.75;;
34926;SDS011;21132;48.308;14.274;2023-04-29T09:39:25;5.10;;;3.90;;
34926;SDS011;21132;48.308;14.274;2023-04-29T09:44:18;4.78;;;3.33;;
34926;SDS011;21132;48.308;14.274;2023-04-29T09:46:55;4.40;;;3.75;;
34926;SDS011;21132;48.308;14.274;2023-04-29T09:49:25;5.82;;;4.15;;
34926;SDS011;21132;48.308;14.274;2023-04-29T09:51:55;6.20;;;4.40;;
34926;SDS011;21132;48.308;14.274;2023-04-29T09:54:30;7.05;;;3.63;;
34926;SDS011;21132;48.308;14.274;2023-04-29T09:56:57;5.75;;;3.90;;
34926;SDS011;21132;48.308;14.274;2023-04-29T09:59:26;7.70;;;4.30;;
34926;SDS011;21132;48.308;14.274;2023-04-29T10:01:55;6.03;;;4.15;;
34926;SDS011;21132;48.308;14.274;2023-04-29T10:04:23;5.68;;;4.35;;
34926;SDS011;21132;48.308;14.274;2023-04-29T10:06:50;5.85;;;4.40;;
34926;SDS011;21132;48.308;14.274;2023-04-29T10:09:18;5.20;;;4.50;;
34926;SDS011;21132;48.308;14.274;2023-04-29T10:11:45;6.90;;;3.67;;
34926;SDS011;21132;48.308;14.274;2023-04-29T10:14:22;5.70;;;4.25;;
34926;SDS011;21132;48.308;14.274;2023-04-29T10:17:02;6.20;;;4.38;;
34926;SDS011;21132;48.308;14.274;2023-04-29T10:19:41;10.52;;;4.88;;
34926;SDS011;21132;48.308;14.274;2023-04-29T10:22:21;5.25;;;3.50;;
34926;SDS011;21132;48.308;14.274;2023-04-29T10:24:53;4.70;;;3.70;;
34926;SDS011;21132;48.308;14.274;2023-04-29T10:27:21;4.93;;;3.42;;
34926;SDS011;21132;48.308;14.274;2023-04-29T10:29:49;7.47;;;3.38;;
34926;SDS011;21132;48.308;14.274;2023-04-29T10:32:17;4.53;;;2.85;;
34926;SDS011;21132;48.308;14.274;2023-04-29T10:34:46;4.22;;;2.80;;
34926;SDS011;21132;48.308;14.274;2023-04-29T10:37:13;8.55;;;2.80;;
34926;SDS011;21132;48.308;14.274;2023-04-29T10:42:19;7.25;;;3.10;;
34926;SDS011;21132;48.308;14.274;2023-04-29T10:47:52;4.18;;;3.05;;
34926;SDS011;21132;48.308;14.274;2023-04-29T10:53:24;3.85;;;2.80;;
34926;SDS011;21132;48.308;14.274;2023-04-29T10:56:13;12.77;;;2.90;;
34926;SDS011;21132;48.308;14.274;2023-04-29T10:58:40;5.40;;;2.80;;
34926;SDS011;21132;48.308;14.274;2023-04-29T11:01:12;3.35;;;2.03;;
34926;SDS011;21132;48.308;14.274;2023-04-29T11:03:46;4.35;;;2.38;;
34926;SDS011;21132;48.308;14.274;2023-04-29T11:06:23;4.00;;;2.67;;
34926;SDS011;21132;48.308;14.274;2023-04-29T11:09:04;4.75;;;3.00;;
34926;SDS011;21132;48.308;14.274;2023-04-29T11:11:42;3.58;;;2.00;;
34926;SDS011;21132;48.308;14.274;2023-04-29T11:14:20;4.38;;;1.67;;
34926;SDS011;21132;48.308;14.274;2023-04-29T11:19:49;5.72;;;2.20;;
34926;SDS011;21132;48.308;14.274;2023-04-29T11:24:58;5.10;;;2.05;;
34926;SDS011;21132;48.308;14.274;2023-04-29T11:27:32;4.57;;;2.10;;
34926;SDS011;21132;48.308;14.274;2023-04-29T11:29:59;4.97;;;2.22;;
34926;SDS011;21132;48.308;14.274;2023-04-29T11:32:38;2.80;;;1.67;;
34926;SDS011;21132;48.308;14.274;2023-04-29T11:35:15;3.38;;;1.60;;
34926;SDS011;21132;48.308;14.274;2023-04-29T11:37:44;3.30;;;1.88;;
34926;SDS011;21132;48.308;14.274;2023-04-29T11:40:11;13.90;;;1.95;;
34926;SDS011;21132;48.308;14.274;2023-04-29T11:42:42;4.65;;;2.30;;
34926;SDS011;21132;48.308;14.274;2023-04-29T11:45:12;6.53;;;2.30;;
34926;SDS011;21132;48.308;14.274;2023-04-29T11:47:46;5.35;;;2.20;;
34926;SDS011;21132;48.308;14.274;2023-04-29T11:50:13;5.75;;;3.70;;
34926;SDS011;21132;48.308;14.274;2023-04-29T11:52:41;4.65;;;2.40;;
34926;SDS011;21132;48.308;14.274;2023-04-29T11:55:09;4.15;;;2.10;;
34926;SDS011;21132;48.308;14.274;2023-04-29T11:57:35;3.70;;;1.92;;
34926;SDS011;21132;48.308;14.274;2023-04-29T12:00:09;6.40;;;3.25;;
34926;SDS011;21132;48.308;14.274;2023-04-29T12:02:42;6.03;;;1.67;;
34926;SDS011;21132;48.308;14.274;2023-04-29T12:05:08;6.10;;;2.65;;
34926;SDS011;21132;48.308;14.274;2023-04-29T12:07:38;3.28;;;1.63;;
34926;SDS011;21132;48.308;14.274;2023-04-29T12:10:07;1.75;;;1.27;;
34926;SDS011;21132;48.308;14.274;2023-04-29T12:12:37;2.53;;;1.23;;
34926;SDS011;21132;48.308;14.274;2023-04-29T12:15:05;5.43;;;1.40;;
34926;SDS011;21132;48.308;14.274;2023-04-29T12:17:32;3.97;;;1.73;;
34926;SDS011;21132;48.308;14.274;2023-04-29T12:19:58;2.50;;;1.20;;
34926;SDS011;21132;48.308;14.274;2023-04-29T12:22:33;1.58;;;1.27;;
34926;SDS011;21132;48.308;14.274;2023-04-29T12:25:03;4.68;;;1.60;;
34926;SDS011;21132;48.308;14.274;2023-04-29T12:27:29;3.70;;;1.50;;
34926;SDS011;21132;48.308;14.274;2023-04-29T12:29:55;3.28;;;1.45;;
34926;SDS011;21132;48.308;14.274;2023-04-29T12:32:22;2.35;;;1.40;;
34926;SDS011;21132;48.308;14.274;2023-04-29T12:34:49;4.65;;;1.45;;
34926;SDS011;21132;48.308;14.274;2023-04-29T12:37:21;3.85;;;1.33;;
34926;SDS011;21132;48.308;14.274;2023-04-29T12:39:48;3.60;;;1.58;;
34926;SDS011;21132;48.308;14.274;2023-04-29T12:42:14;3.47;;;1.27;;
34926;SDS011;21132;48.308;14.274;2023-04-29T12:44:43;10.55;;;1.30;;
34926;SDS011;21132;48.308;14.274;2023-04-29T12:47:11;2.40;;;1.10;;
34926;SDS011;21132;48.308;14.274;2023-04-29T12:49:45;3.97;;;1.13;;
34926;SDS011;21132;48.308;14.274;2023-04-29T12:54:38;5.60;;;1.60;;
34926;SDS011;21132;48.308;14.274;2023-04-29T12:57:11;5.85;;;1.40;;
34926;SDS011;21132;48.308;14.274;2023-04-29T12:59:37;2.05;;;0.95;;
34926;SDS011;21132;48.308;14.274;2023-04-29T13:02:03;1.80;;;1.00;;
34926;SDS011;21132;48.308;14.274;2023-04-29T13:04:29;2.63;;;1.42;;
34926;SDS011;21132;48.308;14.274;2023-04-29T13:06:55;2.30;;;1.10;;
34926;SDS011;21132;48.308;14.274;2023-04-29T13:09:27;2.83;;;1.58;;
34926;SDS011;21132;48.308;14.274;2023-04-29T13:11:54;2.95;;;1.20;;
34926;SDS011;21132;48.308;14.274;2023-04-29T13:14:20;6.20;;;1.40;;
34926;SDS011;21132;48.308;14.274;2023-04-29T13:16:46;4.80;;;1.25;;
34926;SDS011;21132;48.308;14.274;2023-04-29T13:19:12;2.05;;;1.08;;
34926;SDS011;21132;48.308;14.274;2023-04-29T13:21:38;7.57;;;1.70;;
34926;SDS011;21132;48.308;14.274;2023-04-29T13:24:03;3.28;;;1.40;;
34926;SDS011;21132;48.308;14.274;2023-04-29T13:26:30;2.78;;;1.20;;
34926;SDS011;21132;48.308;14.274;2023-04-29T13:28:55;3.22;;;1.80;;
34926;SDS011;21132;48.308;14.274;2023-04-29T13:31:21;6.25;;;2.50;;
34926;SDS011;21132;48.308;14.274;2023-04-29T13:33:47;2.85;;;1.70;;
34926;SDS011;21132;48.308;14.274;2023-04-29T13:36:13;6.22;;;1.20;;
34926;SDS011;21132;48.308;14.274;2023-04-29T13:38:39;5.28;;;1.90;;
34926;SDS011;21132;48.308;14.274;2023-04-29T13:41:05;2.45;;;1.30;;
34926;SDS011;21132;48.308;14.274;2023-04-29T13:43:31;6.50;;;1.45;;
34926;SDS011;21132;48.308;14.274;2023-04-29T13:45:57;3.05;;;1.40;;
34926;SDS011;21132;48.308;14.274;2023-04-29T13:48:23;2.00;;;1.20;;
34926;SDS011;21132;48.308;14.274;2023-04-29T13:50:49;1.00;;;0.90;;
34926;SDS011;21132;48.308;14.274;2023-04-29T13:53:15;4.05;;;1.05;;
34926;SDS011;21132;48.308;14.274;2023-04-29T13:55:41;2.40;;;1.10;;
34926;SDS011;21132;48.308;14.274;2023-04-29T13:58:07;1.48;;;1.17;;
34926;SDS011;21132;48.308;14.274;2023-04-29T14:00:33;2.28;;;1.17;;
34926;SDS011;21132;48.308;14.274;2023-04-29T14:02:59;2.28;;;1.00;;
34926;SDS011;21132;48.308;14.274;2023-04-29T14:05:25;1.88;;;0.98;;
34926;SDS011;21132;48.308;14.274;2023-04-29T14:07:51;2.17;;;1.20;;
34926;SDS011;21132;48.308;14.274;2023-04-29T14:10:16;1.25;;;1.10;;
34926;SDS011;21132;48.308;14.274;2023-04-29T14:12:42;0.85;;;0.82;;
34926;SDS011;21132;48.308;14.274;2023-04-29T14:15:08;2.38;;;1.30;;
34926;SDS011;21132;48.308;14.274;2023-04-29T14:17:34;2.83;;;1.55;;
34926;SDS011;21132;48.308;14.274;2023-04-29T14:20:01;2.38;;;1.08;;
34926;SDS011;21132;48.308;14.274;2023-04-29T14:22:28;4.68;;;1.20;;
34926;SDS011;21132;48.308;14.274;2023-04-29T14:24:53;1.85;;;1.30;;
34926;SDS011;21132;48.308;14.274;2023-04-29T14:27:19;1.60;;;0.80;;
34926;SDS011;21132;48.308;14.274;2023-04-29T14:29:45;2.28;;;1.70;;
34926;SDS011;21132;48.308;14.274;2023-04-29T14:32:11;1.88;;;1.48;;
34926;SDS011;21132;48.308;14.274;2023-04-29T14:34:37;3.15;;;0.93;;
34926;SDS011;21132;48.308;14.274;2023-04-29T14:37:03;1.35;;;1.02;;
34926;SDS011;21132;48.308;14.274;2023-04-29T14:39:29;3.65;;;1.30;;
34926;SDS011;21132;48.308;14.274;2023-04-29T14:41:55;1.70;;;1.35;;
34926;SDS011;21132;48.308;14.274;2023-04-29T14:44:20;2.00;;;1.10;;
34926;SDS011;21132;48.308;14.274;2023-04-29T14:46:46;4.45;;;1.40;;
34926;SDS011;21132;48.308;14.274;2023-04-29T14:49:12;4.22;;;1.13;;
34926;SDS011;21132;48.308;14.274;2023-04-29T14:51:38;1.70;;;1.27;;
34926;SDS011;21132;48.308;14.274;2023-04-29T14:54:04;1.33;;;1.00;;
34926;SDS011;21132;48.308;14.274;2023-04-29T14:56:30;4.45;;;1.23;;
34926;SDS011;21132;48.308;14.274;2023-04-29T14:58:56;1.27;;;1.17;;
34926;SDS011;21132;48.308;14.274;2023-04-29T15:01:22;1.98;;;1.35;;
34926;SDS011;21132;48.308;14.274;2023-04-29T15:03:48;8.23;;;2.30;;